Time;durP1;ratioP1;P1;durP2;ratioP2;P2;SDS_P1;SDS_P2;PMS_P1;PMS_P2;Temp;Humidity;BMP_temperature;BMP_pressure;BME280_temperature;BME280_humidity;BME280_pressure;Samples;Min_cycle;Max_cycle;Signal;HPM_P1;HPM_P2
2023/03/18 00:00:22;;;;;;;5.60;4.70;;;10.10;28.40;;;;;;10401316;28;20316;-68
2023/03/18 00:05:27;;;;;;;5.00;4.50;;;10.10;28.40;;;;;;10403989;28;20221;-68
2023/03/18 00:10:31;;;;;;;5.07;4.50;;;10.00;28.30;;;;;;10403177;28;20226;-68
2023/03/18 00:15:34;;;;;;;6.50;4.90;;;9.90;29.00;;;;;;10402931;28;20247;-67
2023/03/18 00:20:39;;;;;;;6.80;5.20;;;9.80;28.90;;;;;;10403308;28;20234;-69
2023/03/18 00:25:42;;;;;;;4.67;4.27;;;9.80;28.90;;;;;;10401451;28;20225;-68
2023/03/18 00:30:46;;;;;;;4.50;3.93;;;9.70;28.90;;;;;;10397580;28;20238;-67
2023/03/18 00:35:51;;;;;;;6.10;4.80;;;9.70;28.80;;;;;;10405116;28;20732;-70
2023/03/18 00:41:00;;;;;;;5.93;4.93;;;9.60;29.40;;;;;;10404916;28;20264;-67
2023/03/18 00:46:04;;;;;;;5.17;4.50;;;9.60;28.80;;;;;;10400602;28;20218;-67
2023/03/18 00:51:09;;;;;;;5.60;5.10;;;9.50;28.70;;;;;;10401567;28;20635;-67
2023/03/18 00:56:13;;;;;;;5.53;5.03;;;9.40;29.10;;;;;;10398624;28;20221;-68
2023/03/18 01:01:17;;;;;;;5.33;4.83;;;9.30;29.10;;;;;;10398746;28;20889;-68
2023/03/18 01:06:27;;;;;;;5.80;4.87;;;9.20;29.10;;;;;;10401641;28;20230;-68
2023/03/18 01:11:30;;;;;;;5.00;4.33;;;9.00;29.50;;;;;;10400560;28;20230;-68
2023/03/18 01:16:33;;;;;;;5.40;4.90;;;8.90;29.40;;;;;;10394476;28;20233;-68
2023/03/18 01:21:38;;;;;;;5.23;4.73;;;8.90;29.50;;;;;;10397016;28;20313;-69
2023/03/18 01:26:41;;;;;;;5.00;4.60;;;8.80;29.80;;;;;;10393383;28;20862;-70
2023/03/18 01:31:44;;;;;;;5.03;4.53;;;8.80;29.70;;;;;;10395560;28;20244;-67
2023/03/18 01:36:49;;;;;;;5.20;4.70;;;8.80;29.60;;;;;;10403269;28;20237;-70
2023/03/18 01:41:52;;;;;;;6.00;4.43;;;8.80;29.80;;;;;;10389531;28;20273;-70
2023/03/18 01:46:55;;;;;;;5.73;4.90;;;8.80;29.70;;;;;;10373129;28;20230;-70
2023/03/18 01:52:04;;;;;;;5.37;4.87;;;8.70;29.70;;;;;;10394607;28;20312;-70
2023/03/18 01:57:07;;;;;;;6.00;5.23;;;8.60;30.00;;;;;;10390890;28;20222;-69
2023/03/18 02:02:13;;;;;;;4.70;4.23;;;8.60;29.70;;;;;;10390493;28;20225;-70
2023/03/18 02:07:21;;;;;;;5.57;5.07;;;8.50;29.90;;;;;;10391378;28;20222;-69
2023/03/18 02:12:26;;;;;;;4.90;4.33;;;8.40;30.00;;;;;;10393979;28;20228;-70
2023/03/18 02:17:31;;;;;;;4.93;4.40;;;8.40;30.00;;;;;;10384368;28;20226;-70
2023/03/18 02:22:40;;;;;;;4.40;3.83;;;8.40;29.90;;;;;;10394300;28;20304;-70
2023/03/18 02:27:48;;;;;;;5.13;4.50;;;8.20;30.10;;;;;;10395085;28;20229;-70
2023/03/18 02:32:52;;;;;;;5.30;4.80;;;8.10;30.50;;;;;;10399902;28;20288;-70
2023/03/18 02:37:55;;;;;;;4.63;4.20;;;8.00;30.40;;;;;;10395055;28;20253;-71
2023/03/18 02:43:17;;;;;;;5.20;4.73;;;8.00;30.40;;;;;;10389596;28;20235;-69
2023/03/18 02:48:22;;;;;;;5.70;4.60;;;8.00;31.60;;;;;;10395564;28;20218;-70
2023/03/18 02:53:26;;;;;;;17.10;10.97;;;8.00;30.30;;;;;;10396618;28;20240;-70
2023/03/18 02:58:31;;;;;;;17.93;11.07;;;7.90;30.20;;;;;;10393250;28;20230;-69
2023/03/18 03:03:34;;;;;;;8.63;7.00;;;7.80;30.50;;;;;;10388078;28;20237;-69
2023/03/18 03:08:39;;;;;;;6.77;5.93;;;7.80;30.50;;;;;;10403124;28;20729;-69
2023/03/18 03:13:44;;;;;;;5.47;4.97;;;7.70;30.50;;;;;;10404612;28;20240;-67
2023/03/18 03:18:48;;;;;;;5.73;4.93;;;7.70;31.00;;;;;;10404260;28;20238;-67
2023/03/18 03:23:51;;;;;;;5.33;4.37;;;7.70;30.60;;;;;;10407417;28;20228;-66
2023/03/18 03:28:56;;;;;;;4.57;4.00;;;7.70;30.60;;;;;;10402939;28;20230;-66
2023/03/18 03:33:59;;;;;;;4.87;4.47;;;7.80;30.90;;;;;;10403951;28;20245;-68
2023/03/18 03:39:03;;;;;;;4.13;3.83;;;7.80;30.60;;;;;;10404918;28;20234;-67
2023/03/18 03:44:07;;;;;;;5.13;4.63;;;7.80;30.50;;;;;;10404234;28;20221;-69
2023/03/18 03:49:11;;;;;;;4.80;4.40;;;7.90;30.90;;;;;;10397884;28;20718;-71
2023/03/18 03:54:14;;;;;;;4.60;4.20;;;7.90;30.60;;;;;;10400694;28;20295;-69
2023/03/18 03:59:18;;;;;;;5.63;4.80;;;7.80;30.50;;;;;;10394584;28;20227;-70
2023/03/18 04:04:22;;;;;;;3.90;3.50;;;7.80;31.10;;;;;;10403922;28;20625;-70
2023/03/18 04:09:26;;;;;;;4.80;4.20;;;7.70;30.60;;;;;;10390290;28;20565;-69
2023/03/18 04:14:30;;;;;;;5.67;5.13;;;7.70;30.80;;;;;;10402716;28;20245;-71
2023/03/18 04:19:33;;;;;;;5.30;4.67;;;7.70;31.10;;;;;;10395899;28;20236;-70
2023/03/18 04:24:36;;;;;;;6.23;5.40;;;7.70;30.90;;;;;;10395788;28;20229;-70
2023/03/18 04:29:41;;;;;;;6.13;5.53;;;7.70;30.90;;;;;;10390984;28;20230;-69
2023/03/18 04:34:44;;;;;;;5.67;5.13;;;7.60;31.20;;;;;;10395857;28;20249;-70
2023/03/18 04:39:47;;;;;;;5.07;4.63;;;7.60;30.90;;;;;;10394447;28;20229;-71
2023/03/18 04:44:52;;;;;;;4.67;4.27;;;7.50;31.10;;;;;;10399344;28;20226;-73
2023/03/18 04:49:55;;;;;;;4.50;4.10;;;7.50;31.30;;;;;;10396720;28;20264;-71
2023/03/18 04:54:59;;;;;;;5.07;4.53;;;7.40;31.20;;;;;;10398847;28;20241;-70
2023/03/18 05:00:05;;;;;;;4.30;3.90;;;7.40;31.30;;;;;;10384557;28;20233;-69
2023/03/18 05:05:10;;;;;;;5.10;4.30;;;7.30;31.60;;;;;;10391747;28;20222;-70
2023/03/18 05:10:14;;;;;;;4.87;4.07;;;7.40;31.60;;;;;;10402586;28;20328;-69
2023/03/18 05:15:19;;;;;;;4.30;3.90;;;7.40;31.60;;;;;;10399476;28;20226;-69
2023/03/18 05:20:22;;;;;;;3.30;3.10;;;7.30;31.80;;;;;;10397356;28;20252;-70
2023/03/18 05:25:25;;;;;;;4.73;3.53;;;7.40;31.60;;;;;;10389756;28;20238;-70
2023/03/18 05:30:30;;;;;;;4.50;4.10;;;7.40;31.50;;;;;;10388930;28;20241;-69
2023/03/18 05:35:33;;;;;;;4.47;3.83;;;7.40;31.70;;;;;;10393861;28;20273;-69
2023/03/18 05:40:37;;;;;;;4.57;4.17;;;7.40;31.50;;;;;;10401611;28;20240;-69
2023/03/18 05:45:42;;;;;;;3.93;3.53;;;7.50;31.60;;;;;;10394801;28;20234;-70
2023/03/18 05:50:46;;;;;;;5.00;4.50;;;7.50;31.80;;;;;;10395826;28;20593;-70
2023/03/18 05:55:49;;;;;;;4.47;4.07;;;7.40;31.60;;;;;;10397440;28;20252;-69
2023/03/18 06:00:54;;;;;;;5.03;4.63;;;7.40;31.70;;;;;;10394672;28;20238;-70
2023/03/18 06:05:58;;;;;;;6.83;5.90;;;7.40;32.20;;;;;;10394585;28;20233;-69
2023/03/18 06:11:01;;;;;;;4.97;4.50;;;7.40;32.00;;;;;;10394075;28;20250;-70
2023/03/18 06:16:07;;;;;;;5.00;4.60;;;7.40;32.30;;;;;;10397882;28;20215;-70
2023/03/18 06:21:10;;;;;;;5.07;4.57;;;7.50;32.70;;;;;;10390637;28;20238;-70
2023/03/18 06:26:14;;;;;;;5.27;4.77;;;7.50;32.40;;;;;;10396978;28;20257;-70
2023/03/18 06:31:18;;;;;;;4.40;3.97;;;7.50;32.50;;;;;;10393611;28;20238;-70
2023/03/18 06:36:22;;;;;;;4.90;4.50;;;7.60;32.90;;;;;;10385046;28;20264;-70
2023/03/18 06:41:26;;;;;;;5.77;4.97;;;7.60;32.80;;;;;;10383442;28;20233;-70
2023/03/18 06:46:31;;;;;;;4.90;4.40;;;7.60;32.90;;;;;;10387968;28;20237;-69
2023/03/18 06:51:35;;;;;;;4.97;4.57;;;7.60;33.00;;;;;;10390075;28;20234;-69
2023/03/18 06:56:40;;;;;;;5.80;5.20;;;7.70;33.00;;;;;;10391275;28;20234;-69
2023/03/18 07:01:45;;;;;;;5.17;4.60;;;7.70;33.10;;;;;;10394698;28;20247;-70
2023/03/18 07:06:49;;;;;;;5.17;4.70;;;7.80;33.60;;;;;;10388402;28;20317;-69
2023/03/18 07:11:52;;;;;;;6.43;5.53;;;7.80;33.40;;;;;;10395448;28;20230;-69
2023/03/18 07:16:56;;;;;;;9.17;6.03;;;7.90;33.70;;;;;;10389418;28;20245;-69
2023/03/18 07:22:01;;;;;;;7.63;5.67;;;8.00;34.20;;;;;;10386724;28;20234;-70
2023/03/18 07:27:05;;;;;;;6.53;5.93;;;8.00;33.90;;;;;;10386985;28;20233;-69
2023/03/18 07:32:10;;;;;;;7.57;6.50;;;8.10;34.10;;;;;;10387553;28;20226;-70
2023/03/18 07:37:13;;;;;;;8.53;6.07;;;8.20;34.80;;;;;;10392230;28;20230;-70
2023/03/18 07:42:16;;;;;;;6.93;6.13;;;8.30;34.60;;;;;;10380340;28;20237;-70
2023/03/18 07:47:23;;;;;;;7.03;6.30;;;8.40;34.60;;;;;;10388889;28;20249;-70
2023/03/18 07:52:27;;;;;;;6.33;5.67;;;8.50;35.30;;;;;;10399535;28;20282;-74
2023/03/18 07:57:30;;;;;;;7.90;5.70;;;8.60;35.10;;;;;;10445189;28;20240;-74
2023/03/18 08:02:35;;;;;;;5.67;5.17;;;8.80;35.30;;;;;;10452643;28;20237;-73
2023/03/18 08:07:38;;;;;;;7.23;5.87;;;8.90;35.40;;;;;;10454087;28;20564;-72
2023/03/18 08:12:41;;;;;;;7.03;6.00;;;9.10;35.30;;;;;;10411226;28;20225;-73
2023/03/18 08:17:57;;;;;;;8.17;6.67;;;9.20;35.30;;;;;;10410995;28;20237;-75
2023/03/18 08:23:00;;;;;;;8.57;6.77;;;9.30;35.90;;;;;;10411527;28;20229;-75
2023/03/18 08:28:06;;;;;;;9.50;6.33;;;9.50;35.40;;;;;;10410854;28;20284;-74
2023/03/18 08:33:11;;;;;;;8.00;6.90;;;9.60;35.50;;;;;;10411797;28;20316;-72
2023/03/18 08:38:14;;;;;;;7.20;6.47;;;9.80;35.60;;;;;;10411191;28;20233;-72
2023/03/18 08:43:20;;;;;;;7.30;6.60;;;9.90;35.30;;;;;;10404512;28;20226;-72
2023/03/18 08:48:25;;;;;;;8.13;6.83;;;10.00;34.80;;;;;;10399200;28;20863;-72
2023/03/18 08:53:28;;;;;;;7.97;7.17;;;10.20;35.40;;;;;;10401517;28;20598;-69
2023/03/18 08:58:32;;;;;;;10.43;7.10;;;10.40;35.00;;;;;;10400082;28;20234;-70
2023/03/18 09:03:37;;;;;;;9.50;6.87;;;10.60;36.00;;;;;;10384121;28;20226;-74
2023/03/18 09:08:40;;;;;;;7.63;6.47;;;10.80;35.70;;;;;;10397004;28;20815;-71
2023/03/18 09:13:44;;;;;;;7.57;6.87;;;11.00;35.80;;;;;;10374299;28;20229;-72
2023/03/18 09:18:48;;;;;;;7.33;6.60;;;11.20;35.50;;;;;;10398929;28;20234;-71
2023/03/18 09:23:51;;;;;;;6.87;6.17;;;11.50;36.60;;;;;;10401244;28;20608;-71
2023/03/18 09:28:54;;;;;;;8.13;6.37;;;11.70;36.00;;;;;;10403733;28;20586;-72
2023/03/18 09:33:59;;;;;;;7.33;6.53;;;12.00;35.60;;;;;;10382255;28;20237;-74
2023/03/18 09:39:02;;;;;;;12.37;6.90;;;12.20;35.40;;;;;;10379534;28;20234;-73
2023/03/18 09:44:14;;;;;;;16.40;8.17;;;12.50;35.30;;;;;;10384072;28;20226;-73
2023/03/18 09:49:56;;;;;;;8.83;7.87;;;12.70;36.00;;;;;;10379878;28;20226;-74
2023/03/18 09:55:05;;;;;;;8.33;6.73;;;12.90;36.20;;;;;;10379782;28;20232;-72
2023/03/18 10:00:19;;;;;;;6.70;6.10;;;13.20;35.70;;;;;;10383573;28;20222;-73
2023/03/18 10:05:29;;;;;;;7.20;6.50;;;13.40;35.80;;;;;;10403696;28;20300;-74
2023/03/18 10:10:37;;;;;;;8.50;6.03;;;13.60;35.60;;;;;;10407087;28;20225;-73
2023/03/18 10:15:44;;;;;;;10.23;6.33;;;13.90;35.50;;;;;;10392640;28;20240;-73
2023/03/18 10:21:15;;;;;;;7.27;6.00;;;14.10;35.30;;;;;;10386959;28;20238;-73
2023/03/18 10:26:25;;;;;;;6.20;5.70;;;14.40;35.60;;;;;;10387670;28;20234;-73
2023/03/18 10:31:42;;;;;;;6.27;5.67;;;14.70;35.00;;;;;;10378106;28;20233;-73
2023/03/18 10:36:50;;;;;;;8.17;6.17;;;15.00;35.10;;;;;;10389454;28;20229;-73
2023/03/18 10:41:59;;;;;;;6.10;5.50;;;15.30;34.60;;;;;;10409775;28;20237;-73
2023/03/18 10:47:14;;;;;;;7.07;5.57;;;15.50;35.40;;;;;;10412282;28;20237;-74
2023/03/18 10:52:27;;;;;;;5.97;5.37;;;15.80;34.30;;;;;;10373183;28;20673;-74
2023/03/18 10:57:32;;;;;;;5.77;5.27;;;16.10;34.10;;;;;;10411564;28;20236;-74
2023/03/18 11:02:39;;;;;;;5.30;4.80;;;16.40;33.30;;;;;;10440557;28;20717;-73
2023/03/18 11:07:57;;;;;;;4.57;4.20;;;16.60;33.60;;;;;;10398516;28;20231;-73
2023/03/18 11:13:02;;;;;;;4.13;3.73;;;16.90;33.80;;;;;;10384181;28;20233;-73
2023/03/18 11:18:05;;;;;;;4.40;3.50;;;17.10;31.70;;;;;;10406049;28;20240;-73
2023/03/18 11:23:18;;;;;;;3.57;3.27;;;17.40;32.00;;;;;;10396188;28;20296;-73
2023/03/18 11:28:28;;;;;;;2.83;2.63;;;17.60;30.40;;;;;;10367288;28;20234;-73
2023/03/18 11:33:36;;;;;;;4.30;2.83;;;17.80;30.00;;;;;;10407097;28;20222;-73
2023/03/18 11:38:39;;;;;;;2.80;2.50;;;18.00;29.70;;;;;;10397004;28;20234;-72
2023/03/18 11:43:55;;;;;;;3.00;2.40;;;18.10;29.90;;;;;;10403175;28;20710;-73
2023/03/18 11:48:59;;;;;;;2.87;2.60;;;18.30;28.40;;;;;;10400884;28;20237;-73
2023/03/18 11:54:32;;;;;;;2.80;2.60;;;18.40;29.40;;;;;;10392477;28;20321;-74
2023/03/18 11:59:51;;;;;;;3.10;2.50;;;18.60;28.60;;;;;;10392617;28;20229;-74
2023/03/18 12:05:24;;;;;;;3.20;2.27;;;18.70;28.30;;;;;;10403449;28;20226;-75
2023/03/18 12:10:34;;;;;;;2.80;2.43;;;18.70;27.70;;;;;;10389878;28;20594;-74
2023/03/18 12:15:47;;;;;;;3.03;2.03;;;18.90;27.90;;;;;;10382377;28;20253;-75
2023/03/18 12:20:52;;;;;;;3.03;2.20;;;19.00;27.90;;;;;;10394276;28;20229;-74
2023/03/18 12:26:02;;;;;;;3.13;2.20;;;19.10;28.30;;;;;;10385767;28;20230;-74
2023/03/18 12:31:31;;;;;;;3.00;1.90;;;19.10;27.30;;;;;;10390343;28;20222;-75
2023/03/18 12:36:47;;;;;;;3.63;2.37;;;19.10;27.20;;;;;;10381271;28;20722;-74
2023/03/18 12:42:01;;;;;;;2.10;1.90;;;19.20;26.20;;;;;;10389240;28;20271;-74
2023/03/18 12:47:11;;;;;;;3.30;2.23;;;19.20;26.60;;;;;;10385360;28;20264;-75
2023/03/18 12:52:22;;;;;;;6.47;2.23;;;19.30;27.10;;;;;;10391843;28;20221;-74
2023/03/18 12:57:36;;;;;;;2.40;2.20;;;19.30;26.70;;;;;;10393043;28;20230;-74
2023/03/18 13:02:47;;;;;;;3.03;2.30;;;19.40;25.90;;;;;;10397312;28;20232;-74
2023/03/18 13:08:04;;;;;;;2.50;2.20;;;19.50;25.10;;;;;;10393501;28;20245;-75
2023/03/18 13:13:10;;;;;;;2.63;2.10;;;19.60;26.40;;;;;;10395749;28;20229;-75
2023/03/18 13:18:20;;;;;;;2.50;2.30;;;19.70;26.40;;;;;;10396337;28;20646;-74
2023/03/18 13:23:39;;;;;;;3.50;2.47;;;19.70;25.90;;;;;;10393350;28;20226;-75
2023/03/18 13:28:56;;;;;;;2.50;2.17;;;19.90;25.30;;;;;;10393354;28;20237;-75
2023/03/18 13:34:31;;;;;;;2.80;2.37;;;20.00;24.00;;;;;;10388171;28;20909;-75
2023/03/18 13:39:57;;;;;;;4.23;2.40;;;20.10;24.30;;;;;;10401390;28;20229;-75
2023/03/18 13:45:06;;;;;;;2.63;2.10;;;20.10;24.90;;;;;;10382208;28;20342;-75
2023/03/18 13:50:31;;;;;;;2.73;2.50;;;20.20;25.50;;;;;;10392702;28;20607;-75
2023/03/18 13:55:41;;;;;;;3.57;2.43;;;20.30;24.20;;;;;;10383426;28;20309;-75
2023/03/18 14:01:05;;;;;;;2.60;2.40;;;20.30;25.60;;;;;;10387911;28;20784;-76
2023/03/18 14:06:25;;;;;;;3.80;2.60;;;20.40;25.60;;;;;;10394857;28;20275;-74
2023/03/18 14:11:48;;;;;;;3.20;2.33;;;20.50;24.50;;;;;;10396447;28;20233;-76
2023/03/18 14:16:53;;;;;;;4.63;2.40;;;20.50;23.20;;;;;;10380254;28;20248;-76
2023/03/18 14:22:08;;;;;;;3.17;2.47;;;20.60;24.80;;;;;;10397061;28;20739;-76
2023/03/18 14:27:19;;;;;;;2.97;2.30;;;20.60;23.80;;;;;;10383882;28;20210;-76
2023/03/18 14:32:38;;;;;;;2.87;2.50;;;20.60;23.80;;;;;;10385749;28;20238;-76
2023/03/18 14:38:02;;;;;;;2.83;2.20;;;20.60;23.40;;;;;;10394522;28;20317;-75
2023/03/18 14:43:10;;;;;;;2.50;2.30;;;20.70;23.60;;;;;;10379329;28;20218;-76
2023/03/18 14:48:19;;;;;;;4.07;2.77;;;20.80;24.00;;;;;;10389769;28;20237;-76
2023/03/18 14:53:29;;;;;;;2.30;2.10;;;20.70;23.80;;;;;;10380793;28;20234;-76
2023/03/18 14:58:34;;;;;;;2.50;2.30;;;20.70;23.70;;;;;;10369306;28;20226;-76
2023/03/18 15:03:39;;;;;;;2.77;2.27;;;20.70;24.00;;;;;;10399111;28;20225;-76
2023/03/18 15:08:48;;;;;;;3.50;2.40;;;20.70;24.00;;;;;;10400777;28;20236;-76
2023/03/18 15:13:54;;;;;;;2.57;2.30;;;20.70;23.50;;;;;;10388557;28;20229;-76
2023/03/18 15:18:59;;;;;;;21.20;4.70;;;20.70;23.80;;;;;;10389901;28;20229;-76
2023/03/18 15:24:08;;;;;;;4.47;2.53;;;20.70;24.60;;;;;;10396029;28;20321;-76
2023/03/18 15:29:24;;;;;;;16.00;4.57;;;20.70;23.70;;;;;;10390861;28;20237;-76
2023/03/18 15:34:30;;;;;;;19.90;2.77;;;20.70;23.60;;;;;;10408415;28;20220;-76
2023/03/18 15:39:36;;;;;;;4.43;2.30;;;20.70;24.10;;;;;;10391709;28;20233;-73
2023/03/18 15:44:41;;;;;;;2.63;1.90;;;20.70;24.10;;;;;;10391586;28;20576;-72
2023/03/18 15:49:53;;;;;;;2.63;2.17;;;20.70;24.40;;;;;;10399512;28;20229;-71
2023/03/18 15:54:57;;;;;;;2.67;2.00;;;20.70;23.80;;;;;;10396983;28;20229;-72
2023/03/18 16:00:01;;;;;;;4.27;2.10;;;20.60;24.70;;;;;;10396433;28;20238;-73
2023/03/18 16:05:13;;;;;;;2.40;2.20;;;20.60;25.00;;;;;;10403817;28;20237;-72
2023/03/18 16:10:21;;;;;;;3.53;1.90;;;20.60;24.40;;;;;;10404811;28;20236;-71
2023/03/18 16:15:26;;;;;;;1.80;1.70;;;20.50;24.70;;;;;;10392624;28;20238;-72
2023/03/18 16:20:32;;;;;;;3.97;2.03;;;20.50;25.20;;;;;;10396031;28;20312;-71
2023/03/18 16:25:36;;;;;;;1.90;1.60;;;20.60;25.60;;;;;;10398388;28;20267;-71
2023/03/18 16:30:40;;;;;;;2.37;1.60;;;20.50;25.00;;;;;;10391070;28;20279;-72
2023/03/18 16:35:44;;;;;;;2.77;1.83;;;20.50;25.00;;;;;;10389836;28;20866;-71
2023/03/18 16:40:49;;;;;;;5.27;2.40;;;20.50;25.20;;;;;;10390448;28;21350;-73
2023/03/18 16:45:52;;;;;;;2.67;2.10;;;20.40;25.20;;;;;;10394737;28;20229;-74
2023/03/18 16:50:55;;;;;;;1.70;1.60;;;20.40;25.30;;;;;;10388026;28;20265;-74
2023/03/18 16:56:14;;;;;;;3.53;2.13;;;20.40;25.20;;;;;;10390132;28;20229;-74
2023/03/18 17:01:18;;;;;;;3.03;1.83;;;20.30;25.00;;;;;;10387307;28;20233;-74
2023/03/18 17:06:22;;;;;;;97.97;7.60;;;20.20;25.10;;;;;;10397739;28;20233;-74
2023/03/18 17:11:27;;;;;;;30.87;3.80;;;20.20;25.50;;;;;;10391433;28;20698;-74
2023/03/18 17:16:31;;;;;;;4.90;2.03;;;20.10;25.40;;;;;;10399381;28;20237;-73
2023/03/18 17:21:34;;;;;;;6.00;2.10;;;20.00;25.30;;;;;;10398282;28;20709;-72
2023/03/18 17:26:38;;;;;;;3.53;1.90;;;19.90;25.30;;;;;;10401145;28;20237;-72
2023/03/18 17:31:41;;;;;;;3.80;1.70;;;19.80;25.20;;;;;;10391140;28;20221;-72
2023/03/18 17:36:45;;;;;;;3.63;1.60;;;19.70;25.10;;;;;;10394737;28;20223;-72
2023/03/18 17:41:49;;;;;;;7.67;6.13;;;19.60;25.10;;;;;;10395484;28;20698;-71
2023/03/18 17:46:53;;;;;;;11.10;7.97;;;19.50;25.00;;;;;;10390945;28;20230;-71
2023/03/18 17:51:56;;;;;;;10.77;7.53;;;19.40;24.90;;;;;;10397467;28;20312;-71
2023/03/18 17:57:01;;;;;;;9.87;8.87;;;19.30;24.90;;;;;;10390686;28;20229;-71
2023/03/18 18:02:04;;;;;;;12.63;9.93;;;19.10;25.00;;;;;;10390836;28;21207;-72
2023/03/18 18:07:17;;;;;;;10.67;9.43;;;19.00;25.40;;;;;;10395160;28;20234;-71
2023/03/18 18:12:24;;;;;;;17.97;13.23;;;18.80;25.30;;;;;;10389881;28;20226;-72
2023/03/18 18:17:27;;;;;;;13.73;10.17;;;18.70;25.40;;;;;;10393822;28;20229;-72
2023/03/18 18:22:30;;;;;;;16.03;10.67;;;18.50;25.40;;;;;;10396126;28;20276;-72
2023/03/18 18:27:35;;;;;;;16.50;12.40;;;18.40;25.50;;;;;;10394405;28;20226;-72
2023/03/18 18:32:38;;;;;;;15.03;10.70;;;18.20;25.50;;;;;;10395535;28;20229;-72
2023/03/18 18:37:45;;;;;;;8.60;7.70;;;18.10;25.60;;;;;;10399764;28;20660;-72
2023/03/18 18:42:49;;;;;;;7.90;6.33;;;18.00;25.50;;;;;;10391773;28;20598;-72
2023/03/18 18:47:52;;;;;;;9.77;6.53;;;17.80;25.80;;;;;;10398343;28;20229;-72
2023/03/18 18:52:56;;;;;;;9.17;7.40;;;17.70;25.90;;;;;;10398280;28;20249;-72
2023/03/18 18:58:01;;;;;;;19.37;17.27;;;17.50;25.80;;;;;;10398681;28;20237;-73
2023/03/18 19:03:06;;;;;;;17.37;14.57;;;17.30;25.70;;;;;;10394626;28;20252;-73
2023/03/18 19:08:21;;;;;;;13.83;12.43;;;17.20;25.80;;;;;;10390573;28;20221;-72
2023/03/18 19:13:28;;;;;;;12.20;10.90;;;16.90;26.10;;;;;;10378442;28;20222;-72
2023/03/18 19:18:35;;;;;;;11.20;9.10;;;16.70;26.20;;;;;;10382177;28;20238;-72
2023/03/18 19:23:38;;;;;;;11.07;9.30;;;16.50;26.20;;;;;;10386262;28;20238;-72
2023/03/18 19:28:55;;;;;;;11.17;9.73;;;16.40;26.30;;;;;;10396437;28;20284;-72
2023/03/18 19:34:02;;;;;;;9.97;8.97;;;16.30;26.50;;;;;;10392439;28;20225;-72
2023/03/18 19:39:10;;;;;;;8.77;7.67;;;16.20;26.40;;;;;;10387850;28;20223;-72
2023/03/18 19:44:18;;;;;;;8.03;6.87;;;16.20;26.60;;;;;;10381119;28;20233;-73
2023/03/18 19:49:25;;;;;;;5.67;5.17;;;16.00;26.90;;;;;;10393365;28;20233;-73
2023/03/18 19:54:30;;;;;;;6.07;5.30;;;16.00;26.90;;;;;;10404389;28;20232;-72
2023/03/18 19:59:35;;;;;;;6.13;5.60;;;15.90;26.70;;;;;;10401714;28;20313;-72
2023/03/18 20:04:41;;;;;;;7.20;6.40;;;15.80;26.80;;;;;;10398736;28;20225;-73
2023/03/18 20:09:44;;;;;;;11.90;8.10;;;15.60;26.70;;;;;;10403444;28;20230;-73
2023/03/18 20:14:50;;;;;;;8.87;7.97;;;15.60;26.80;;;;;;10404772;28;20303;-73
2023/03/18 20:19:53;;;;;;;10.17;8.70;;;15.40;26.90;;;;;;10403259;28;20233;-73
2023/03/18 20:24:56;;;;;;;8.83;8.00;;;15.30;26.90;;;;;;10395773;28;20288;-73
2023/03/18 20:30:00;;;;;;;10.30;9.20;;;15.20;26.90;;;;;;10397288;28;20284;-73
2023/03/18 20:35:04;;;;;;;9.87;8.73;;;15.20;27.10;;;;;;10399253;28;20229;-73
2023/03/18 20:40:18;;;;;;;10.10;7.77;;;15.00;27.00;;;;;;10400126;28;20233;-73
2023/03/18 20:45:24;;;;;;;11.17;7.80;;;14.80;27.50;;;;;;10394973;28;20233;-73
2023/03/18 20:50:29;;;;;;;9.53;8.50;;;14.60;27.50;;;;;;10398566;28;20240;-73
2023/03/18 20:55:34;;;;;;;12.23;9.77;;;14.40;27.50;;;;;;10400114;28;20280;-73
2023/03/18 21:00:39;;;;;;;12.97;9.97;;;14.20;27.60;;;;;;10387617;28;20741;-73
2023/03/18 21:05:42;;;;;;;11.70;9.87;;;14.10;27.90;;;;;;10394956;28;20230;-73
2023/03/18 21:10:45;;;;;;;13.97;9.40;;;13.90;27.80;;;;;;10396050;28;20241;-73
2023/03/18 21:15:50;;;;;;;10.60;8.93;;;13.80;27.90;;;;;;10397647;28;20233;-73
2023/03/18 21:20:54;;;;;;;10.50;7.90;;;13.80;28.20;;;;;;10398462;28;20839;-73
2023/03/18 21:25:57;;;;;;;10.17;7.13;;;13.70;28.20;;;;;;10401750;28;20240;-73
2023/03/18 21:31:02;;;;;;;8.93;7.67;;;13.60;28.00;;;;;;10402889;28;20706;-73
2023/03/18 21:36:06;;;;;;;9.60;6.73;;;13.50;28.30;;;;;;10398799;28;20229;-73
2023/03/18 21:41:19;;;;;;;8.57;7.50;;;13.50;28.30;;;;;;10399311;28;20230;-73
2023/03/18 21:46:25;;;;;;;8.53;6.43;;;13.40;29.10;;;;;;10395421;28;20303;-73
2023/03/18 21:51:31;;;;;;;8.77;6.10;;;13.20;28.80;;;;;;10397096;28;20222;-73
2023/03/18 21:56:41;;;;;;;7.23;6.27;;;13.10;28.70;;;;;;10390378;28;20252;-73
2023/03/18 22:01:45;;;;;;;7.53;6.20;;;13.00;28.60;;;;;;10391575;28;20233;-73
2023/03/18 22:06:49;;;;;;;7.67;6.73;;;13.00;28.90;;;;;;10389816;28;20257;-73
2023/03/18 22:11:52;;;;;;;9.10;7.13;;;13.00;28.80;;;;;;10392132;28;20233;-73
2023/03/18 22:16:56;;;;;;;8.90;6.13;;;13.00;28.80;;;;;;10393534;28;20234;-73
2023/03/18 22:21:59;;;;;;;7.23;6.03;;;13.10;29.10;;;;;;10396167;28;20234;-73
2023/03/18 22:27:02;;;;;;;8.70;6.93;;;13.10;28.80;;;;;;10396213;28;20775;-73
2023/03/18 22:32:14;;;;;;;7.80;6.63;;;13.10;28.70;;;;;;10395599;28;20230;-73
2023/03/18 22:37:20;;;;;;;8.57;7.37;;;13.10;29.20;;;;;;10391371;28;20897;-73
2023/03/18 22:42:25;;;;;;;9.30;6.90;;;13.10;29.10;;;;;;10396448;28;20241;-73
2023/03/18 22:47:30;;;;;;;6.93;6.23;;;13.00;28.80;;;;;;10385437;28;20230;-73
2023/03/18 22:52:33;;;;;;;9.13;7.20;;;12.90;29.00;;;;;;10388877;28;20249;-73
2023/03/18 22:57:36;;;;;;;12.23;8.00;;;12.80;28.70;;;;;;10395726;28;20251;-73
2023/03/18 23:02:40;;;;;;;9.93;8.00;;;12.70;28.90;;;;;;10394720;28;20698;-73
2023/03/18 23:07:44;;;;;;;9.87;7.83;;;12.60;29.20;;;;;;10383100;28;20226;-73
2023/03/18 23:12:48;;;;;;;7.80;6.87;;;12.50;29.00;;;;;;10393015;28;20233;-73
2023/03/18 23:17:52;;;;;;;8.60;7.53;;;12.50;29.30;;;;;;10390627;28;20264;-73
2023/03/18 23:22:55;;;;;;;6.50;5.83;;;12.30;29.40;;;;;;10400606;28;20237;-73
2023/03/18 23:27:58;;;;;;;7.70;6.57;;;12.20;29.30;;;;;;10403546;28;20241;-74
2023/03/18 23:33:03;;;;;;;7.73;6.50;;;12.10;29.60;;;;;;10398178;28;20236;-73
2023/03/18 23:38:06;;;;;;;5.97;5.37;;;12.10;29.70;;;;;;10400828;28;20232;-73
2023/03/18 23:43:10;;;;;;;7.17;6.33;;;12.10;29.70;;;;;;10394959;28;20226;-73
2023/03/18 23:48:14;;;;;;;9.30;7.50;;;12.10;29.70;;;;;;10392079;28;20711;-73
2023/03/18 23:53:17;;;;;;;7.73;6.67;;;12.10;29.70;;;;;;10399666;28;20598;-73
2023/03/18 23:58:20;;;;;;;7.97;6.87;;;12.10;29.70;;;;;;10405454;28;20230;-74
